Eagle River, AK

4:25 AM AKDT on October 20, 2019 (GMT -0800)
Hidden Hills | | Change Station
Active Advisory: Dense Fog Advisory

Elev 412 ft 61.32 °N, 149.56 °W | Updated 17 seconds ago

Fog
Fog
29.3 °F
Feels Like 29 °F
N
0
Wind Variable Wind from ESE
Gusts 0.0 mph

Today
High -- | Low -- °F
--% Chance of Precip.
Yesterday
High -- | Low -- °F
Precip. -- in
Pressure 29.65 in
Visibility 0.5 miles
Clouds
Windchill 29 °F
Dew Point 26 °F
Humidity 88%
Rainfall 0.00 in
Snow Depth Not available.
8:54 AM 6:30 PM
Waning Gibbous, 61% visible
SPECI PAFR 201218Z AUTO 00000KT 1/2SM R17/4000FT FZFG VV001 M02/M02 A2962 RMK AO2 SLP039
Pressure 29.65 in
Visibility 0.5 miles
Clouds
Windchill 29 °F
Dew Point 26 °F
Humidity 88%
Rainfall 0.00 in
Snow Depth Not available.
8:54 AM 6:30 PM
Waning Gibbous, 61% visible
SPECI PAFR 201218Z AUTO 00000KT 1/2SM R17/4000FT FZFG VV001 M02/M02 A2962 RMK AO2 SLP039

Get Your Daily Forecast Email!

Thanks for signing up!

Be on the lookout for a verification email in your inbox.

You'll start receiving severe weather alerts in your inbox..

×

10-Day Weather Forecast

Almanac

Astronomy

Oct. 20, 2019 Rise Set
Actual Time
Civil Twilight
Nautical Twilight
Astronomical Twilight
Moon
Length of Visible Light
Length of Day
Tomorrow will be .
, % of the Moon is Illuminated

Today's Extremes

State Highs State Lows

Community

WunderPhotos

Category 6

Welcome to Category 6. This is the collective home for Weather Underground's featured writeups by Dr. Jeff Masters (right), Bob Henson (left), Chris Burt, and other regular contributors.

Nearby

Air Quality

  Air Quality AQ Index Pollutant
Not available.

Snow Depth

Station Depth Elevation

Earthquake Activity

City Distance Mag. Time & Date
Minimum magnitude displayed is 2.5.

Coastal Water Temperatures

Place Temperature

Stations

Nearby Weather Stations

Station Location Temp. Windchill Dew Point Humidity Wind Precip. Elev Updated Type
                   

Watches & Warnings

Dense Fog Advisory
Issued: 4:10 AM AKDT Oct. 20, 2019 – National Weather Service

... Dense fog advisory in effect until 10 am akdt this morning...

* what... visibility one quarter mile or less in dense fog.

* Where... Anchorage.

* When... until 10 am akdt this morning. Fog could begin to lift
after sunrise.

* Impacts... hazardous driving conditions due to low visibility.

Precautionary/preparedness actions...

A dense fog advisory means visibilities will frequently be
reduced to less than one quarter mile. If driving, slow down, use
your headlights, and leave plenty of distance ahead of you.



For more information from the National Weather Service visit
http://weather.Gov/afc